Time;durP1;ratioP1;P1;durP2;ratioP2;P2;SDS_P1;SDS_P2;PMS_P1;PMS_P2;Temp;Humidity;BMP_temperature;BMP_pressure;BME280_temperature;BME280_humidity;BME280_pressure;Samples;Min_cycle;Max_cycle;Signal;HPM_P1;HPM_P2
2023/11/21 00:00:39;;;;;;;3.90;2.30;;;;;;;7.67;77.24;94982.70;106663;1275;25629;-81
2023/11/21 00:03:28;;;;;;;5.10;1.70;;;;;;;7.69;76.92;94975.48;106645;1275;22520;-80
2023/11/21 00:05:57;;;;;;;5.80;3.00;;;;;;;7.69;77.05;94981.27;106678;1275;22531;-82
2023/11/21 00:08:25;;;;;;;4.30;2.20;;;;;;;7.65;77.21;94981.86;106671;1275;22527;-80
2023/11/21 00:10:54;;;;;;;3.90;2.10;;;;;;;7.61;77.04;94979.66;106586;1275;25249;-81
2023/11/21 00:13:22;;;;;;;3.60;1.90;;;;;;;7.60;77.13;94980.71;106616;1275;22522;-81
2023/11/21 00:15:50;;;;;;;6.50;1.70;;;;;;;7.58;77.17;94979.88;106681;1275;22532;-81
2023/11/21 00:18:19;;;;;;;4.50;1.90;;;;;;;7.53;77.40;94982.92;106688;1275;22603;-80
2023/11/21 00:20:47;;;;;;;4.90;1.90;;;;;;;7.50;77.67;94989.80;106671;1275;25603;-81
2023/11/21 00:23:15;;;;;;;5.60;2.30;;;;;;;7.47;77.88;94984.61;106703;1275;24403;-81
2023/11/21 00:25:44;;;;;;;5.00;1.60;;;;;;;7.46;77.90;94991.80;106655;1275;22730;-81
2023/11/21 00:28:12;;;;;;;2.90;1.50;;;;;;;7.46;77.54;94991.10;106662;1275;23016;-81
2023/11/21 00:30:40;;;;;;;4.40;1.90;;;;;;;7.42;77.97;94994.15;106672;1275;22534;-81
2023/11/21 00:33:08;;;;;;;6.70;2.80;;;;;;;7.33;78.26;94999.18;106718;1272;22516;-83
2023/11/21 00:35:37;;;;;;;5.30;2.10;;;;;;;7.28;78.64;94989.81;106628;1275;22517;-82
2023/11/21 00:38:05;;;;;;;4.00;2.00;;;;;;;7.22;78.66;94993.23;106724;1275;24225;-81
2023/11/21 00:40:33;;;;;;;4.20;2.00;;;;;;;7.22;78.89;95000.05;106652;1275;22524;-81
2023/11/21 00:43:01;;;;;;;3.40;1.90;;;;;;;7.20;79.08;95003.23;106680;1275;24325;-81
2023/11/21 00:45:33;;;;;;;4.20;1.90;;;;;;;7.13;79.41;95010.67;106697;1275;25371;-82
2023/11/21 00:48:01;;;;;;;4.10;1.70;;;;;;;7.02;79.64;95011.89;106626;1275;22874;-81
2023/11/21 00:50:30;;;;;;;3.90;2.10;;;;;;;6.90;79.73;95013.80;106721;1275;25294;-81
2023/11/21 00:52:58;;;;;;;4.90;2.30;;;;;;;6.81;79.62;95016.20;106688;1272;22638;-81
2023/11/21 00:55:27;;;;;;;4.40;2.00;;;;;;;6.77;79.95;95016.43;106639;1263;22549;-80
2023/11/21 00:57:56;;;;;;;7.10;3.20;;;;;;;6.69;79.98;95014.60;106656;1275;22748;-81
2023/11/21 01:00:25;;;;;;;4.40;2.30;;;;;;;6.56;80.09;95015.64;106706;1275;22534;-81
2023/11/21 01:02:53;;;;;;;6.00;2.30;;;;;;;6.44;80.02;95024.69;106624;1275;22622;-81
2023/11/21 01:05:21;;;;;;;3.90;2.00;;;;;;;6.31;80.17;95024.67;106675;1275;22527;-82
2023/11/21 01:07:50;;;;;;;3.10;2.10;;;;;;;6.14;80.72;95025.20;106725;1275;24255;-81
2023/11/21 01:10:18;;;;;;;4.70;1.90;;;;;;;5.94;81.02;95025.23;106727;1275;25246;-81
2023/11/21 01:12:46;;;;;;;3.10;2.00;;;;;;;5.80;81.38;95028.14;106701;1275;25375;-81
2023/11/21 01:15:15;;;;;;;4.80;2.40;;;;;;;5.66;81.80;95028.27;106707;1275;22527;-81
2023/11/21 01:17:43;;;;;;;3.30;2.10;;;;;;;5.60;82.72;95033.19;106582;1275;25453;-80
2023/11/21 01:20:12;;;;;;;5.00;2.20;;;;;;;5.74;82.64;95035.87;106891;1275;25406;-80
2023/11/21 01:22:41;;;;;;;11.50;5.00;;;;;;;5.78;82.29;95035.98;107059;1275;22520;-81
2023/11/21 01:25:10;;;;;;;4.80;2.20;;;;;;;5.81;82.54;95035.09;106970;1275;25497;-81
2023/11/21 01:27:39;;;;;;;3.90;2.20;;;;;;;5.77;82.48;95041.42;106810;1272;25395;-81
2023/11/21 01:30:09;;;;;;;6.80;5.50;;;;;;;5.77;82.85;95036.86;106695;1275;22658;-82
2023/11/21 01:32:37;;;;;;;3.00;1.90;;;;;;;5.85;82.70;95036.10;106690;1275;25418;-81
2023/11/21 01:35:06;;;;;;;4.00;2.00;;;;;;;5.89;82.53;95028.73;106640;1275;24093;-81
2023/11/21 01:37:34;;;;;;;5.70;2.50;;;;;;;5.85;82.60;95033.14;106789;1275;25229;-81
2023/11/21 01:40:07;;;;;;;2.70;1.80;;;;;;;5.80;82.45;95042.79;106697;1275;22737;-81
2023/11/21 01:42:36;;;;;;;2.80;1.80;;;;;;;5.71;82.58;95041.13;106912;1275;22746;-81
2023/11/21 01:45:06;;;;;;;3.70;2.00;;;;;;;5.66;83.16;95041.34;106724;1275;25284;-81
2023/11/21 01:47:35;;;;;;;2.80;1.80;;;;;;;5.58;83.33;95039.48;106716;1275;23335;-81
2023/11/21 01:50:06;;;;;;;3.10;2.00;;;;;;;5.50;83.23;95037.64;106746;1275;22761;-81
2023/11/21 01:52:36;;;;;;;3.50;1.80;;;;;;;5.37;83.73;95035.45;106708;1275;25500;-81
2023/11/21 01:55:08;;;;;;;3.30;1.90;;;;;;;5.28;83.83;95032.40;106730;1275;22570;-81
2023/11/21 01:57:37;;;;;;;3.40;1.70;;;;;;;5.27;84.40;95037.63;106755;1275;22530;-81
2023/11/21 02:00:15;;;;;;;4.10;2.30;;;;;;;5.28;84.59;95038.49;106648;1275;22511;-81
2023/11/21 02:02:48;;;;;;;5.80;3.30;;;;;;;5.26;84.52;95042.34;106707;1275;22745;-81
2023/11/21 02:05:18;;;;;;;6.30;2.50;;;;;;;5.18;84.80;95042.21;106726;1275;25511;-81
2023/11/21 02:07:52;;;;;;;4.80;2.60;;;;;;;5.25;85.12;95047.75;106602;1275;22528;-81
2023/11/21 02:10:22;;;;;;;3.90;2.00;;;;;;;5.34;85.02;95051.35;106792;1275;25424;-81
2023/11/21 02:12:52;;;;;;;4.40;1.80;;;;;;;5.34;84.82;95053.80;106737;1275;25254;-81
2023/11/21 02:15:23;;;;;;;3.40;2.40;;;;;;;5.42;84.94;95054.44;106764;1275;25422;-81
2023/11/21 02:17:51;;;;;;;5.30;2.10;;;;;;;5.48;84.81;95047.24;106860;1275;22534;-80
2023/11/21 02:20:24;;;;;;;5.70;2.50;;;;;;;5.46;84.65;95047.42;106732;1275;24998;-81
2023/11/21 02:22:57;;;;;;;4.60;2.70;;;;;;;5.48;84.83;95040.61;106668;1275;26028;-80
2023/11/21 02:25:27;;;;;;;;;;;;;;;5.50;84.89;95043.73;106790;1275;23861;-80
2023/11/21 02:27:58;;;;;;;5.00;2.30;;;;;;;5.39;84.55;95038.59;106764;1275;22530;-80
2023/11/21 02:30:33;;;;;;;4.10;2.20;;;;;;;5.36;85.15;95032.52;106695;1275;25245;-81
2023/11/21 02:33:01;;;;;;;3.60;2.50;;;;;;;5.36;85.11;95030.77;106631;1275;25409;-80
2023/11/21 02:35:31;;;;;;;3.90;2.40;;;;;;;5.36;85.15;95032.67;106903;1275;24295;-81
2023/11/21 02:38:01;;;;;;;4.60;3.00;;;;;;;5.34;85.16;95033.91;106704;1275;22530;-80
2023/11/21 02:40:29;;;;;;;6.80;2.90;;;;;;;5.34;85.12;95036.02;106704;1275;22660;-81
2023/11/21 02:42:58;;;;;;;2.70;2.40;;;;;;;5.34;85.21;95031.99;106710;1275;22514;-80
2023/11/21 02:45:28;;;;;;;5.10;2.80;;;;;;;5.27;84.94;95034.49;106715;1266;25389;-81
2023/11/21 02:47:56;;;;;;;4.30;2.30;;;;;;;5.25;85.16;95029.98;106709;1275;22575;-80
2023/11/21 02:50:27;;;;;;;7.40;2.90;;;;;;;5.22;85.25;95029.98;106693;1264;22656;-81
2023/11/21 02:53:00;;;;;;;6.00;3.00;;;;;;;5.21;85.36;95030.86;106727;1264;25528;-81
2023/11/21 02:55:28;;;;;;;4.10;2.40;;;;;;;5.18;85.51;95030.02;106706;1275;25238;-81
2023/11/21 02:57:56;;;;;;;3.90;2.60;;;;;;;5.12;85.40;95025.70;106700;1275;22534;-81
2023/11/21 03:00:25;;;;;;;3.20;2.40;;;;;;;5.10;85.50;95027.80;106666;1275;22595;-81
2023/11/21 03:02:55;;;;;;;3.60;2.70;;;;;;;5.02;85.73;95024.73;106679;1275;25494;-81
2023/11/21 03:05:24;;;;;;;3.90;2.80;;;;;;;4.97;86.09;95023.70;106704;1275;26621;-81
2023/11/21 03:07:52;;;;;;;5.10;3.60;;;;;;;4.98;86.82;95019.34;106753;1275;24268;-81
2023/11/21 03:10:20;;;;;;;5.30;3.90;;;;;;;5.01;87.19;95026.82;106589;1275;24225;-82
2023/11/21 03:12:50;;;;;;;9.60;3.90;;;;;;;5.13;87.47;95029.17;106664;1274;24242;-81
2023/11/21 03:15:18;;;;;;;4.80;3.00;;;;;;;5.25;87.49;95035.73;106700;1275;24259;-80
2023/11/21 03:17:49;;;;;;;6.60;4.50;;;;;;;5.30;87.22;95030.80;106759;1275;22536;-81
2023/11/21 03:20:17;;;;;;;7.70;3.70;;;;;;;5.38;87.23;95029.88;106616;1275;22533;-81
2023/11/21 03:22:46;;;;;;;8.40;3.90;;;;;;;5.46;87.33;95033.65;106652;1275;22649;-81
2023/11/21 03:25:17;;;;;;;6.70;3.70;;;;;;;5.49;86.93;95035.19;106788;1275;25249;-81
2023/11/21 03:27:46;;;;;;;5.70;4.10;;;;;;;5.46;86.99;95025.61;106716;1275;22530;-81
2023/11/21 03:30:14;;;;;;;6.30;4.00;;;;;;;5.45;86.79;95027.02;106702;1275;22534;-81
2023/11/21 03:32:42;;;;;;;6.90;3.90;;;;;;;5.40;86.70;95023.58;106680;1275;26557;-81
2023/11/21 03:35:10;;;;;;;6.20;3.90;;;;;;;5.32;86.68;95027.48;106705;1275;22744;-81
2023/11/21 03:37:41;;;;;;;6.40;4.50;;;;;;;5.29;86.78;95021.05;106727;1275;22583;-81
2023/11/21 03:40:10;;;;;;;8.90;4.60;;;;;;;5.28;86.98;95029.26;106859;1270;22534;-81
2023/11/21 03:42:39;;;;;;;12.90;4.20;;;;;;;5.28;87.14;95028.38;106730;1275;25331;-82
2023/11/21 03:45:08;;;;;;;7.00;3.60;;;;;;;5.28;87.10;95033.78;106748;1275;25262;-82
2023/11/21 03:47:36;;;;;;;8.30;3.90;;;;;;;5.26;86.85;95040.08;106710;1275;22613;-81
2023/11/21 03:50:05;;;;;;;4.30;3.40;;;;;;;5.18;86.58;95031.92;106654;1275;24261;-81
2023/11/21 03:52:33;;;;;;;8.30;3.60;;;;;;;5.15;86.77;95034.40;106701;1275;23471;-81
2023/11/21 03:55:02;;;;;;;6.50;4.10;;;;;;;5.14;86.84;95034.39;106652;1275;25933;-81
2023/11/21 03:57:30;;;;;;;5.30;3.40;;;;;;;5.11;86.51;95033.89;106736;1275;24437;-82
2023/11/21 03:59:58;;;;;;;3.80;3.00;;;;;;;5.01;86.06;95035.17;106695;1275;22625;-81
2023/11/21 04:02:28;;;;;;;4.70;3.30;;;;;;;4.83;85.91;95037.02;106741;1275;22527;-81
2023/11/21 04:04:56;;;;;;;5.80;3.30;;;;;;;4.69;86.16;95031.18;106794;1275;24228;-82
2023/11/21 04:07:25;;;;;;;6.80;3.40;;;;;;;4.58;86.13;95032.96;106840;1275;22733;-81
2023/11/21 04:09:53;;;;;;;8.50;2.80;;;;;;;4.43;86.04;95039.30;106728;1275;22618;-82
2023/11/21 04:12:22;;;;;;;6.40;3.40;;;;;;;4.28;86.03;95047.38;106730;1261;22524;-82
2023/11/21 04:14:50;;;;;;;5.50;3.40;;;;;;;4.20;86.59;95048.44;106681;1273;22531;-82
2023/11/21 04:17:21;;;;;;;7.10;3.40;;;;;;;4.09;86.36;95046.20;106683;1275;22519;-81
2023/11/21 04:19:50;;;;;;;5.60;3.40;;;;;;;3.98;86.33;95050.59;106714;1275;25358;-82
2023/11/21 04:22:18;;;;;;;4.50;3.00;;;;;;;3.87;86.46;95049.20;106591;1275;25443;-81
2023/11/21 04:24:46;;;;;;;4.50;2.20;;;;;;;3.74;86.31;95050.61;106741;1275;22521;-81
2023/11/21 04:27:14;;;;;;;4.40;2.70;;;;;;;3.58;86.08;95047.84;106759;1275;25309;-81
2023/11/21 04:29:42;;;;;;;4.20;2.40;;;;;;;3.46;86.11;95043.48;106625;1275;22535;-81
2023/11/21 04:32:10;;;;;;;3.80;2.20;;;;;;;3.40;86.70;95036.38;106706;1267;22524;-81
2023/11/21 04:34:38;;;;;;;2.50;1.70;;;;;;;3.37;87.06;95034.64;106751;1275;25497;-81
2023/11/21 04:37:07;;;;;;;2.20;1.70;;;;;;;3.34;87.11;95033.75;106733;1275;25307;-81
2023/11/21 04:39:35;;;;;;;5.80;1.60;;;;;;;3.31;87.09;95030.28;106752;1275;25423;-81
2023/11/21 04:42:03;;;;;;;6.60;4.50;;;;;;;3.21;86.97;95029.05;106754;1275;24463;-81
2023/11/21 04:44:31;;;;;;;5.40;2.20;;;;;;;3.17;87.56;95034.80;106790;1275;25388;-82
2023/11/21 04:46:59;;;;;;;4.60;2.60;;;;;;;3.12;87.49;95033.74;106743;1275;22520;-81
2023/11/21 04:49:28;;;;;;;3.10;2.00;;;;;;;3.12;87.93;95034.61;106701;1275;24279;-81
2023/11/21 04:51:56;;;;;;;2.70;1.60;;;;;;;3.10;87.59;95033.75;106681;1275;22523;-81
2023/11/21 04:54:24;;;;;;;3.70;1.80;;;;;;;3.08;87.72;95037.40;106703;1275;24218;-81
2023/11/21 04:56:55;;;;;;;2.90;1.90;;;;;;;3.07;87.94;95039.48;106632;1275;24512;-81
2023/11/21 04:59:27;;;;;;;7.20;2.40;;;;;;;3.02;87.79;95043.13;106691;1275;22556;-81
2023/11/21 05:01:55;;;;;;;4.80;2.10;;;;;;;2.99;88.12;95036.69;106658;1275;23032;-81
2023/11/21 05:04:23;;;;;;;6.50;2.10;;;;;;;3.07;88.62;95039.30;106726;1275;22640;-81
2023/11/21 05:06:51;;;;;;;3.50;2.20;;;;;;;3.10;88.59;95041.05;106707;1275;24290;-81
2023/11/21 05:09:20;;;;;;;7.30;2.00;;;;;;;3.04;87.89;95037.21;106669;1275;24269;-81
2023/11/21 05:11:48;;;;;;;3.40;1.80;;;;;;;3.05;88.38;95038.77;106654;1275;22538;-81
2023/11/21 05:14:18;;;;;;;5.30;3.00;;;;;;;3.09;88.59;95042.43;106845;1275;25514;-81
2023/11/21 05:16:46;;;;;;;4.50;1.80;;;;;;;3.16;88.85;95036.88;106863;1275;22543;-81
2023/11/21 05:19:15;;;;;;;4.70;2.40;;;;;;;3.19;88.72;95034.45;106841;1275;24099;-81
2023/11/21 05:21:43;;;;;;;4.30;2.00;;;;;;;3.25;89.01;95034.64;106699;1275;22527;-81
2023/11/21 05:24:11;;;;;;;2.70;1.80;;;;;;;3.21;88.00;95037.23;106659;1275;25420;-81
2023/11/21 05:26:39;;;;;;;7.40;5.20;;;;;;;3.11;88.00;95039.30;106705;1275;23842;-81
2023/11/21 05:29:08;;;;;;;6.00;4.20;;;;;;;3.01;87.82;95037.73;106689;1275;22540;-81
2023/11/21 05:31:37;;;;;;;4.30;2.20;;;;;;;2.96;87.99;95038.25;106716;1275;22520;-81
2023/11/21 05:34:06;;;;;;;3.30;2.20;;;;;;;2.86;87.72;95040.30;106770;1275;22524;-81
2023/11/21 05:36:34;;;;;;;2.40;1.60;;;;;;;2.79;87.88;95036.47;106687;1275;22517;-81
2023/11/21 05:39:03;;;;;;;2.90;1.30;;;;;;;2.77;88.47;95044.45;107127;1275;22526;-81
2023/11/21 05:41:32;;;;;;;2.30;0.90;;;;;;;2.78;88.79;95038.38;106927;1275;22633;-81
2023/11/21 05:44:01;;;;;;;4.20;2.30;;;;;;;2.72;88.82;95040.96;106687;1275;24276;-80
2023/11/21 05:46:30;;;;;;;17.20;9.40;;;;;;;2.65;89.22;95044.08;106680;1275;22638;-81
2023/11/21 05:48:59;;;;;;;21.80;12.90;;;;;;;2.63;89.34;95048.05;106744;1275;22646;-81
2023/11/21 05:51:27;;;;;;;27.30;17.80;;;;;;;2.57;89.02;95045.09;106673;1275;25330;-81
2023/11/21 05:53:55;;;;;;;24.20;15.80;;;;;;;2.51;89.08;95049.94;106736;1275;24502;-80
2023/11/21 05:56:23;;;;;;;16.50;10.80;;;;;;;2.48;89.00;95054.78;106710;1275;22540;-80
2023/11/21 05:58:52;;;;;;;10.40;4.90;;;;;;;2.46;89.01;95049.40;106687;1275;22553;-80
2023/11/21 06:01:20;;;;;;;4.40;3.20;;;;;;;2.45;89.13;95053.38;106848;1275;25242;-82
2023/11/21 06:03:49;;;;;;;4.60;1.40;;;;;;;2.45;88.99;95056.52;106798;1275;25495;-81
2023/11/21 06:06:19;;;;;;;40.90;20.80;;;;;;;2.48;89.27;95060.34;106835;1275;22518;-80
2023/11/21 06:08:49;;;;;;;18.20;10.70;;;;;;;2.48;89.53;95062.08;106942;1275;23914;-83
2023/11/21 06:11:17;;;;;;;10.50;4.90;;;;;;;2.51;89.63;95063.46;106717;1275;22573;-83
2023/11/21 06:13:45;;;;;;;16.40;7.50;;;;;;;2.51;89.79;95059.13;106689;1275;22635;-81
2023/11/21 06:16:16;;;;;;;11.20;6.40;;;;;;;2.53;89.98;95061.58;106710;1275;23886;-81
2023/11/21 06:18:45;;;;;;;24.90;15.40;;;;;;;2.57;90.10;95068.88;106659;1275;22551;-80
2023/11/21 06:21:14;;;;;;;41.70;22.20;;;;;;;2.60;90.31;95072.02;106773;1275;22647;-79
2023/11/21 06:23:42;;;;;;;59.00;29.80;;;;;;;2.66;90.45;95065.44;106679;1275;22517;-79
2023/11/21 06:26:10;;;;;;;137.30;71.70;;;;;;;2.71;90.63;95062.67;106753;1275;23897;-82
2023/11/21 06:28:38;;;;;;;121.00;63.40;;;;;;;2.76;90.44;95067.90;106718;1275;24203;-81
2023/11/21 06:31:07;;;;;;;167.40;82.30;;;;;;;2.81;90.39;95066.17;106752;1275;22550;-81
2023/11/21 06:33:35;;;;;;;149.30;75.50;;;;;;;2.91;90.63;95070.89;106902;1264;22528;-82
2023/11/21 06:36:03;;;;;;;125.40;69.10;;;;;;;3.06;91.05;95065.19;106785;1275;23152;-82
2023/11/21 06:38:32;;;;;;;103.70;55.90;;;;;;;3.20;90.89;95059.99;106839;1272;25500;-82
2023/11/21 06:41:04;;;;;;;55.70;33.70;;;;;;;3.36;91.17;95063.50;106766;1275;22543;-80
2023/11/21 06:43:32;;;;;;;45.10;26.00;;;;;;;3.53;91.10;95065.05;107065;1275;23157;-80
2023/11/21 06:46:01;;;;;;;105.60;59.20;;;;;;;3.68;91.20;95068.17;106874;1275;25245;-80
2023/11/21 06:48:29;;;;;;;49.10;30.30;;;;;;;3.84;91.58;95070.44;106710;1275;22776;-81
2023/11/21 06:50:58;;;;;;;90.70;51.30;;;;;;;4.01;91.61;95073.89;106786;1275;24295;-81
2023/11/21 06:53:26;;;;;;;104.90;53.80;;;;;;;4.14;91.24;95077.86;106767;1275;22550;-80
2023/11/21 06:55:54;;;;;;;91.00;49.70;;;;;;;4.32;91.44;95082.88;106646;1275;25272;-81
2023/11/21 06:58:22;;;;;;;85.60;45.50;;;;;;;4.52;91.48;95086.64;106586;1275;225453;-80
2023/11/21 07:00:52;;;;;;;89.60;50.20;;;;;;;4.72;91.42;95087.27;106798;1275;22524;-82
2023/11/21 07:03:23;;;;;;;60.80;35.50;;;;;;;4.91;91.06;95084.58;106768;1275;22612;-83
2023/11/21 07:05:52;;;;;;;43.00;26.50;;;;;;;5.10;90.92;95077.31;106830;1275;22568;-82
2023/11/21 07:08:20;;;;;;;25.20;16.40;;;;;;;5.35;91.24;95076.81;106657;1275;22548;-81
2023/11/21 07:10:49;;;;;;;21.40;12.20;;;;;;;5.59;90.84;95075.94;106731;1275;24423;-82
2023/11/21 07:13:17;;;;;;;10.80;7.30;;;;;;;5.78;90.11;95075.95;106777;1275;22595;-85
2023/11/21 07:15:45;;;;;;;11.60;7.80;;;;;;;5.96;89.99;95069.71;106634;1275;22543;-85
2023/11/21 07:18:13;;;;;;;6.30;4.70;;;;;;;6.17;89.86;95067.25;106744;1275;25342;-87
2023/11/21 07:20:42;;;;;;;10.30;7.60;;;;;;;6.36;89.47;95068.29;106840;1275;22529;-85
2023/11/21 07:23:10;;;;;;;8.10;5.20;;;;;;;6.53;89.20;95065.13;106672;1275;24331;-85
2023/11/21 07:25:38;;;;;;;8.80;4.50;;;;;;;6.66;88.57;95057.81;106728;1275;22524;-86
2023/11/21 07:28:06;;;;;;;8.10;4.60;;;;;;;6.78;87.80;95050.66;106783;1275;22549;-85
2023/11/21 07:30:35;;;;;;;5.50;4.20;;;;;;;6.87;87.09;95048.64;106664;1275;23186;-85
2023/11/21 07:33:03;;;;;;;4.20;3.10;;;;;;;7.00;87.09;95045.13;106674;1275;22526;-84
2023/11/21 07:35:31;;;;;;;5.40;4.10;;;;;;;7.12;86.33;95040.77;106722;1275;22541;-87
2023/11/21 07:37:59;;;;;;;6.20;4.80;;;;;;;7.26;85.60;95036.37;106716;1275;22530;-86
2023/11/21 07:40:27;;;;;;;6.10;4.50;;;;;;;7.40;85.85;95033.20;106796;1275;25421;-85
2023/11/21 07:42:59;;;;;;;3.00;2.40;;;;;;;7.54;83.31;95031.39;106655;1275;22542;-82
2023/11/21 07:45:28;;;;;;;8.00;5.50;;;;;;;7.73;83.23;95033.36;106777;1275;23320;-84
2023/11/21 07:47:56;;;;;;;2.30;0.60;;;;;;;7.91;80.36;95031.48;106788;1275;24287;-83
2023/11/21 07:50:24;;;;;;;3.60;1.00;;;;;;;8.09;79.35;95032.73;106726;1275;22651;-84
2023/11/21 07:52:54;;;;;;;1.30;0.40;;;;;;;8.30;77.38;95033.41;106741;1275;24238;-82
2023/11/21 07:55:22;;;;;;;3.90;0.80;;;;;;;8.48;76.76;95031.17;106774;1275;24284;-81
2023/11/21 07:57:50;;;;;;;0.60;0.50;;;;;;;8.63;73.71;95028.59;106765;1275;24927;-80
2023/11/21 08:00:21;;;;;;;2.80;0.60;;;;;;;8.75;73.88;95029.58;106748;1275;25383;-83
2023/11/21 08:02:49;;;;;;;0.70;0.40;;;;;;;8.87;70.33;95027.94;106823;1275;22643;-83
2023/11/21 08:05:17;;;;;;;2.10;0.40;;;;;;;8.96;68.41;95028.80;106756;1275;23972;-85
2023/11/21 08:08:01;;;;;;;1.00;0.30;;;;;;;9.05;71.08;95033.32;106761;1275;25255;-84
2023/11/21 08:10:31;;;;;;;0.80;0.30;;;;;;;9.10;67.48;95033.56;107019;1275;22528;-84
2023/11/21 08:13:03;;;;;;;0.90;0.30;;;;;;;9.17;66.55;95033.60;106851;1275;22527;-83
2023/11/21 08:15:32;;;;;;;3.10;0.40;;;;;;;9.22;66.63;95031.39;106949;1270;22541;-84
2023/11/21 08:18:00;;;;;;;3.40;0.40;;;;;;;9.27;66.04;95033.73;106686;1275;24153;-81
2023/11/21 08:20:29;;;;;;;0.60;0.60;;;;;;;9.34;66.79;95032.52;107037;1275;25443;-84
2023/11/21 08:22:57;;;;;;;1.10;0.30;;;;;;;9.42;67.25;95035.85;106871;1275;22519;-83
2023/11/21 08:25:25;;;;;;;2.00;1.60;;;;;;;9.50;68.58;95039.70;106973;1275;22655;-80
2023/11/21 08:27:54;;;;;;;2.10;1.10;;;;;;;9.61;66.90;95035.23;106823;1275;22523;-82
2023/11/21 08:30:23;;;;;;;1.10;0.80;;;;;;;9.70;67.36;95039.57;106874;1275;22530;-81
2023/11/21 08:32:53;;;;;;;3.00;0.40;;;;;;;9.77;66.39;95037.13;106862;1267;22583;-82
2023/11/21 08:35:22;;;;;;;1.90;0.80;;;;;;;9.82;65.53;95042.44;106848;1275;25259;-84
2023/11/21 08:37:53;;;;;;;2.30;0.90;;;;;;;9.88;65.15;95041.59;106911;1264;25516;-81
2023/11/21 08:40:21;;;;;;;0.80;0.70;;;;;;;9.92;62.69;95038.52;106864;1275;22523;-83
2023/11/21 08:42:51;;;;;;;3.10;1.00;;;;;;;9.99;64.34;95036.39;106861;1275;24383;-81
2023/11/21 08:45:22;;;;;;;3.50;1.60;;;;;;;10.07;65.15;95035.67;106791;1275;22646;-81
2023/11/21 08:47:50;;;;;;;1.30;0.80;;;;;;;10.11;63.68;95039.98;106859;1275;22579;-83
2023/11/21 08:50:25;;;;;;;1.80;0.80;;;;;;;10.14;64.48;95042.33;107096;1275;22602;-83
2023/11/21 08:52:54;;;;;;;2.00;0.60;;;;;;;10.19;64.85;95046.08;107173;1275;22670;-84
2023/11/21 09:22:13;;;;;;;3.40;1.30;;;;;;;10.45;59.30;95042.27;106911;1275;22650;-81
2023/11/21 09:24:42;;;;;;;1.90;0.50;;;;;;;10.53;59.06;95042.07;107156;1275;24372;-79
2023/11/21 09:27:11;;;;;;;1.10;0.90;;;;;;;10.61;58.99;95038.50;106692;1275;25379;-79
2023/11/21 09:29:39;;;;;;;0.80;0.50;;;;;;;10.70;58.96;95040.87;106963;1270;22701;-80
2023/11/21 09:32:08;;;;;;;1.20;0.60;;;;;;;10.75;56.49;95029.48;106903;1275;24371;-81
2023/11/21 09:34:38;;;;;;;1.10;0.40;;;;;;;10.86;56.66;95029.02;106841;1264;24268;-82
2023/11/21 09:37:07;;;;;;;0.60;0.30;;;;;;;10.96;55.77;95026.23;106837;1275;22527;-83
2023/11/21 09:39:35;;;;;;;2.40;0.90;;;;;;;11.04;55.76;95022.13;106863;1260;22855;-81
2023/11/21 09:42:17;;;;;;;2.40;1.30;;;;;;;11.17;56.95;95019.13;106846;1269;22544;-84
2023/11/21 09:45:04;;;;;;;3.10;0.80;;;;;;;11.50;55.69;95010.52;106838;1275;24268;-82
2023/11/21 09:47:38;;;;;;;2.00;0.60;;;;;;;11.87;53.89;95011.11;106815;1275;22541;-84
2023/11/21 09:50:08;;;;;;;1.70;0.90;;;;;;;12.28;55.59;95014.69;107021;1275;22630;-80
2023/11/21 09:52:52;;;;;;;3.30;1.90;;;;;;;12.75;53.10;95008.42;106793;1272;22718;-81
2023/11/21 09:55:21;;;;;;;;;;;;;;;13.22;54.40;95006.86;106844;1275;22511;-82
2023/11/21 09:57:50;;;;;;;1.30;0.30;;;;;;;13.15;50.40;95005.01;107108;1272;25333;-83
2023/11/21 10:00:20;;;;;;;1.00;0.80;;;;;;;12.92;50.13;94999.48;106880;1275;22650;-81
2023/11/21 10:02:50;;;;;;;2.40;1.40;;;;;;;12.74;51.50;95000.19;106946;1275;25424;-80
2023/11/21 10:05:21;;;;;;;1.10;0.50;;;;;;;12.49;51.53;95003.19;106743;1275;24256;-81
2023/11/21 10:07:59;;;;;;;0.60;0.50;;;;;;;12.15;52.12;95008.77;106962;1275;25249;-81
2023/11/21 10:10:32;;;;;;;2.20;0.50;;;;;;;12.08;53.95;95008.11;106714;1275;25417;-81
2023/11/21 10:13:06;;;;;;;2.10;0.50;;;;;;;12.01;53.99;95005.55;107016;1275;22520;-81
2023/11/21 11:49:29;;;;;;;8.60;4.90;;;;;;;11.73;54.81;94970.49;106990;1274;22640;-80
2023/11/21 11:52:35;;;;;;;7.10;3.30;;;;;;;11.60;55.45;94970.73;106853;1274;24272;-80
2023/11/21 11:55:04;;;;;;;6.40;2.60;;;;;;;11.43;55.96;94973.04;106919;1263;23928;-81
2023/11/21 11:57:35;;;;;;;4.60;2.00;;;;;;;11.21;56.45;94976.72;106829;1274;22552;-81
2023/11/21 12:00:15;;;;;;;3.80;2.30;;;;;;;11.01;56.73;94978.58;107005;1274;25415;-81
2023/11/21 12:02:45;;;;;;;6.40;3.60;;;;;;;10.88;57.24;94973.88;106897;1274;22566;-81
2023/11/21 12:05:19;;;;;;;5.30;2.70;;;;;;;10.72;57.44;94976.44;106807;1272;22636;-81
2023/11/21 12:07:47;;;;;;;;;;;;;;;10.62;57.10;94983.60;106973;1274;25433;-82
2023/11/21 12:10:17;;;;;;;13.20;6.00;;;;;;;10.47;57.47;94985.59;107063;1274;24369;-81
2023/11/21 12:12:48;;;;;;;18.20;8.80;;;;;;;10.42;58.04;94983.45;106919;1274;22472;-81
2023/11/21 12:15:17;;;;;;;18.20;8.60;;;;;;;10.40;58.21;94984.38;107086;1274;22660;-81
2023/11/21 12:17:46;;;;;;;6.70;5.00;;;;;;;10.37;57.88;94980.59;106843;1274;24268;-81
2023/11/21 12:20:18;;;;;;;7.80;4.60;;;;;;;10.37;58.22;94977.95;106915;1274;22527;-81
2023/11/21 12:22:48;;;;;;;5.10;4.10;;;;;;;10.39;58.59;94978.77;106937;1274;22605;-81
2023/11/21 12:25:31;;;;;;;5.90;4.40;;;;;;;10.42;59.04;94978.86;107064;1274;22621;-81
2023/11/21 12:28:02;;;;;;;4.10;2.40;;;;;;;10.44;59.23;94978.28;106880;1274;25259;-81
2023/11/21 12:30:37;;;;;;;5.00;2.90;;;;;;;10.44;59.35;94974.59;107207;1274;25259;-81
2023/11/21 12:33:08;;;;;;;9.50;5.10;;;;;;;10.46;59.30;94970.69;106857;1274;25626;-81
2023/11/21 12:35:38;;;;;;;3.90;2.60;;;;;;;10.44;58.85;94968.62;106830;1274;22576;-81
2023/11/21 12:38:08;;;;;;;8.40;4.70;;;;;;;10.41;58.80;94971.88;106846;1274;22579;-80
2023/11/21 12:40:37;;;;;;;8.20;4.60;;;;;;;10.38;58.27;94973.36;106956;1274;24278;-81
2023/11/21 12:43:07;;;;;;;9.20;5.40;;;;;;;10.33;58.62;94970.00;106951;1274;26522;-81
2023/11/21 12:45:37;;;;;;;6.00;4.10;;;;;;;10.29;59.08;94972.02;106979;1274;24361;-80
2023/11/21 12:48:11;;;;;;;6.30;3.30;;;;;;;10.24;60.22;94972.66;107074;1274;25620;-80
2023/11/21 12:50:40;;;;;;;6.10;3.60;;;;;;;10.20;60.05;94975.56;106808;1274;22523;-81
2023/11/21 12:53:16;;;;;;;4.30;2.50;;;;;;;10.17;60.38;94980.76;106987;1274;24193;-80
2023/11/21 12:55:49;;;;;;;3.90;2.30;;;;;;;10.14;60.49;94984.17;106766;1274;25380;-80
2023/11/21 12:58:22;;;;;;;3.00;2.00;;;;;;;10.13;60.97;94979.98;106796;1274;22530;-81
2023/11/21 13:00:53;;;;;;;2.40;1.60;;;;;;;10.09;61.08;94980.61;106861;1274;25409;-80
2023/11/21 13:03:25;;;;;;;3.50;1.60;;;;;;;10.03;61.16;94982.02;106951;1274;22532;-81
2023/11/21 13:05:57;;;;;;;3.30;1.60;;;;;;;9.98;61.67;94978.97;106909;1274;22527;-81
2023/11/21 13:08:26;;;;;;;4.60;1.90;;;;;;;9.93;61.86;94979.98;106986;1274;22639;-80
2023/11/21 13:10:56;;;;;;;3.40;1.90;;;;;;;9.90;61.74;94975.31;107001;1274;22918;-79
2023/11/21 13:13:29;;;;;;;4.10;1.80;;;;;;;9.88;62.01;94978.89;106891;1274;22643;-80
2023/11/21 13:16:01;;;;;;;6.70;1.80;;;;;;;9.85;62.76;94980.37;106821;1274;22678;-80
2023/11/21 13:18:31;;;;;;;4.00;1.90;;;;;;;9.80;62.26;94987.17;106922;1274;22874;-80
2023/11/21 13:21:03;;;;;;;5.00;2.50;;;;;;;9.75;61.99;94983.43;107021;1274;24241;-80
2023/11/21 13:23:36;;;;;;;3.80;2.00;;;;;;;9.72;62.20;94978.06;106836;1274;24228;-80
2023/11/21 13:26:05;;;;;;;6.90;3.10;;;;;;;9.67;62.59;94976.77;106955;1272;22529;-79
2023/11/21 13:28:37;;;;;;;9.00;3.70;;;;;;;9.62;63.08;94977.26;106960;1274;22612;-80
2023/11/21 13:31:09;;;;;;;6.60;4.10;;;;;;;9.57;63.39;94974.23;106942;1274;23135;-80
2023/11/21 13:33:40;;;;;;;3.10;1.80;;;;;;;9.51;64.04;94976.81;107009;1274;25483;-80
2023/11/21 13:36:09;;;;;;;3.50;1.30;;;;;;;9.47;65.38;94979.21;106952;1274;25435;-80
2023/11/21 13:38:42;;;;;;;2.50;2.00;;;;;;;9.41;65.31;94981.98;106933;1274;24247;-80
2023/11/21 13:41:13;;;;;;;4.10;1.80;;;;;;;9.35;65.50;94980.19;107015;1274;25348;-80